sensor_id;sensor_type;location;lat;lon;timestamp;P1;durP1;ratioP1;P2;durP2;ratioP2
41556;SDS011;27720;51.992;5.890;2023-07-29T00:00:26;2.85;;;1.83;;
41556;SDS011;27720;51.992;5.890;2023-07-29T00:02:53;2.28;;;1.48;;
41556;SDS011;27720;51.992;5.890;2023-07-29T00:05:18;2.95;;;1.80;;
41556;SDS011;27720;51.992;5.890;2023-07-29T00:07:44;2.75;;;1.52;;
41556;SDS011;27720;51.992;5.890;2023-07-29T00:10:10;3.42;;;1.45;;
41556;SDS011;27720;51.992;5.890;2023-07-29T00:12:36;2.45;;;1.77;;
41556;SDS011;27720;51.992;5.890;2023-07-29T00:15:01;2.40;;;1.33;;
41556;SDS011;27720;51.992;5.890;2023-07-29T00:17:27;3.30;;;1.02;;
41556;SDS011;27720;51.992;5.890;2023-07-29T00:19:53;1.10;;;0.60;;
41556;SDS011;27720;51.992;5.890;2023-07-29T00:22:19;2.03;;;0.88;;
41556;SDS011;27720;51.992;5.890;2023-07-29T00:24:45;1.58;;;0.85;;
41556;SDS011;27720;51.992;5.890;2023-07-29T00:27:18;1.23;;;0.73;;
41556;SDS011;27720;51.992;5.890;2023-07-29T00:29:44;1.30;;;0.68;;
41556;SDS011;27720;51.992;5.890;2023-07-29T00:32:09;0.93;;;0.43;;
41556;SDS011;27720;51.992;5.890;2023-07-29T00:34:35;2.85;;;0.98;;
41556;SDS011;27720;51.992;5.890;2023-07-29T00:37:02;0.82;;;0.47;;
41556;SDS011;27720;51.992;5.890;2023-07-29T00:39:29;1.27;;;0.70;;
41556;SDS011;27720;51.992;5.890;2023-07-29T00:41:54;1.85;;;0.93;;
41556;SDS011;27720;51.992;5.890;2023-07-29T00:44:21;1.55;;;0.80;;
41556;SDS011;27720;51.992;5.890;2023-07-29T00:46:46;1.48;;;1.00;;
41556;SDS011;27720;51.992;5.890;2023-07-29T00:49:14;2.13;;;0.93;;
41556;SDS011;27720;51.992;5.890;2023-07-29T00:51:40;2.45;;;1.27;;
41556;SDS011;27720;51.992;5.890;2023-07-29T00:54:06;1.50;;;0.88;;
41556;SDS011;27720;51.992;5.890;2023-07-29T00:56:32;2.42;;;1.15;;
41556;SDS011;27720;51.992;5.890;2023-07-29T00:58:58;2.13;;;1.10;;
41556;SDS011;27720;51.992;5.890;2023-07-29T01:01:27;3.72;;;1.10;;
41556;SDS011;27720;51.992;5.890;2023-07-29T01:03:54;1.92;;;1.05;;
41556;SDS011;27720;51.992;5.890;2023-07-29T01:14:11;1.63;;;0.88;;
41556;SDS011;27720;51.992;5.890;2023-07-29T01:17:01;2.55;;;1.20;;
41556;SDS011;27720;51.992;5.890;2023-07-29T01:19:34;2.28;;;1.08;;
41556;SDS011;27720;51.992;5.890;2023-07-29T01:22:22;1.50;;;0.90;;
41556;SDS011;27720;51.992;5.890;2023-07-29T01:24:51;1.20;;;0.70;;
41556;SDS011;27720;51.992;5.890;2023-07-29T01:27:17;1.45;;;0.90;;
41556;SDS011;27720;51.992;5.890;2023-07-29T01:29:42;1.70;;;0.88;;
41556;SDS011;27720;51.992;5.890;2023-07-29T01:32:28;1.98;;;0.82;;
41556;SDS011;27720;51.992;5.890;2023-07-29T01:38:08;2.20;;;0.95;;
41556;SDS011;27720;51.992;5.890;2023-07-29T01:40:38;1.63;;;0.88;;
41556;SDS011;27720;51.992;5.890;2023-07-29T01:43:05;1.73;;;1.17;;
41556;SDS011;27720;51.992;5.890;2023-07-29T01:45:33;2.17;;;1.00;;
41556;SDS011;27720;51.992;5.890;2023-07-29T01:48:03;1.10;;;0.70;;
41556;SDS011;27720;51.992;5.890;2023-07-29T01:50:30;1.80;;;1.02;;
41556;SDS011;27720;51.992;5.890;2023-07-29T01:52:57;2.72;;;0.90;;
41556;SDS011;27720;51.992;5.890;2023-07-29T01:55:23;1.42;;;0.75;;
41556;SDS011;27720;51.992;5.890;2023-07-29T01:57:53;1.33;;;0.90;;
41556;SDS011;27720;51.992;5.890;2023-07-29T02:00:19;1.40;;;0.80;;
41556;SDS011;27720;51.992;5.890;2023-07-29T02:02:46;2.03;;;1.00;;
41556;SDS011;27720;51.992;5.890;2023-07-29T02:05:12;1.67;;;0.85;;
41556;SDS011;27720;51.992;5.890;2023-07-29T02:07:37;1.83;;;1.00;;
41556;SDS011;27720;51.992;5.890;2023-07-29T02:10:03;2.05;;;1.40;;
41556;SDS011;27720;51.992;5.890;2023-07-29T02:12:29;1.80;;;0.98;;
41556;SDS011;27720;51.992;5.890;2023-07-29T02:14:55;1.40;;;0.60;;
41556;SDS011;27720;51.992;5.890;2023-07-29T02:17:21;1.55;;;0.85;;
41556;SDS011;27720;51.992;5.890;2023-07-29T02:19:46;1.70;;;1.10;;
41556;SDS011;27720;51.992;5.890;2023-07-29T02:22:16;3.50;;;1.20;;
41556;SDS011;27720;51.992;5.890;2023-07-29T02:24:43;2.22;;;1.13;;
41556;SDS011;27720;51.992;5.890;2023-07-29T02:27:11;1.77;;;1.05;;
41556;SDS011;27720;51.992;5.890;2023-07-29T02:29:37;1.13;;;0.90;;
41556;SDS011;27720;51.992;5.890;2023-07-29T02:32:03;2.30;;;0.82;;
41556;SDS011;27720;51.992;5.890;2023-07-29T02:34:29;2.67;;;1.42;;
41556;SDS011;27720;51.992;5.890;2023-07-29T02:36:55;3.05;;;1.63;;
41556;SDS011;27720;51.992;5.890;2023-07-29T02:39:21;2.88;;;1.50;;
41556;SDS011;27720;51.992;5.890;2023-07-29T02:41:48;2.80;;;1.80;;
41556;SDS011;27720;51.992;5.890;2023-07-29T02:44:15;2.70;;;1.45;;
41556;SDS011;27720;51.992;5.890;2023-07-29T02:46:41;3.67;;;1.77;;
41556;SDS011;27720;51.992;5.890;2023-07-29T02:49:07;3.42;;;1.83;;
41556;SDS011;27720;51.992;5.890;2023-07-29T02:51:33;3.50;;;1.80;;
41556;SDS011;27720;51.992;5.890;2023-07-29T02:53:58;5.32;;;2.65;;
41556;SDS011;27720;51.992;5.890;2023-07-29T02:56:30;4.57;;;1.85;;
41556;SDS011;27720;51.992;5.890;2023-07-29T02:58:59;2.97;;;1.90;;
41556;SDS011;27720;51.992;5.890;2023-07-29T03:01:26;3.72;;;1.90;;
41556;SDS011;27720;51.992;5.890;2023-07-29T03:03:57;3.20;;;1.77;;
41556;SDS011;27720;51.992;5.890;2023-07-29T03:06:23;3.95;;;2.00;;
41556;SDS011;27720;51.992;5.890;2023-07-29T03:08:49;3.33;;;2.13;;
41556;SDS011;27720;51.992;5.890;2023-07-29T03:11:15;3.88;;;1.77;;
41556;SDS011;27720;51.992;5.890;2023-07-29T03:13:44;2.50;;;1.33;;
41556;SDS011;27720;51.992;5.890;2023-07-29T03:16:14;2.50;;;1.45;;
41556;SDS011;27720;51.992;5.890;2023-07-29T03:18:46;2.60;;;1.40;;
41556;SDS011;27720;51.992;5.890;2023-07-29T03:21:13;4.72;;;1.70;;
41556;SDS011;27720;51.992;5.890;2023-07-29T03:23:40;3.10;;;1.90;;
41556;SDS011;27720;51.992;5.890;2023-07-29T03:26:06;2.45;;;1.58;;
41556;SDS011;27720;51.992;5.890;2023-07-29T03:28:44;2.45;;;1.73;;
41556;SDS011;27720;51.992;5.890;2023-07-29T03:31:10;2.60;;;1.55;;
41556;SDS011;27720;51.992;5.890;2023-07-29T03:33:36;2.95;;;2.08;;
41556;SDS011;27720;51.992;5.890;2023-07-29T03:36:02;3.05;;;1.52;;
41556;SDS011;27720;51.992;5.890;2023-07-29T03:38:31;3.22;;;1.40;;
41556;SDS011;27720;51.992;5.890;2023-07-29T03:40:58;3.78;;;1.60;;
41556;SDS011;27720;51.992;5.890;2023-07-29T03:43:24;3.20;;;1.75;;
41556;SDS011;27720;51.992;5.890;2023-07-29T03:45:49;3.67;;;1.95;;
41556;SDS011;27720;51.992;5.890;2023-07-29T03:48:15;1.88;;;1.08;;
41556;SDS011;27720;51.992;5.890;2023-07-29T03:50:41;4.25;;;1.35;;
41556;SDS011;27720;51.992;5.890;2023-07-29T03:53:07;3.35;;;1.58;;
41556;SDS011;27720;51.992;5.890;2023-07-29T03:55:35;3.10;;;1.20;;
41556;SDS011;27720;51.992;5.890;2023-07-29T03:58:00;2.05;;;1.10;;
41556;SDS011;27720;51.992;5.890;2023-07-29T04:00:26;3.42;;;1.20;;
41556;SDS011;27720;51.992;5.890;2023-07-29T04:02:53;4.03;;;1.40;;
41556;SDS011;27720;51.992;5.890;2023-07-29T04:05:19;2.33;;;1.17;;
41556;SDS011;27720;51.992;5.890;2023-07-29T04:07:45;2.25;;;1.27;;
41556;SDS011;27720;51.992;5.890;2023-07-29T04:10:11;1.65;;;1.10;;
41556;SDS011;27720;51.992;5.890;2023-07-29T04:12:38;1.67;;;1.05;;
41556;SDS011;27720;51.992;5.890;2023-07-29T04:15:04;1.80;;;1.10;;
41556;SDS011;27720;51.992;5.890;2023-07-29T04:17:30;3.28;;;0.90;;
41556;SDS011;27720;51.992;5.890;2023-07-29T04:19:56;2.25;;;1.00;;
41556;SDS011;27720;51.992;5.890;2023-07-29T04:22:27;2.88;;;1.23;;
41556;SDS011;27720;51.992;5.890;2023-07-29T04:24:52;1.58;;;1.00;;
41556;SDS011;27720;51.992;5.890;2023-07-29T04:27:21;2.40;;;1.00;;
41556;SDS011;27720;51.992;5.890;2023-07-29T04:29:47;2.63;;;0.88;;
41556;SDS011;27720;51.992;5.890;2023-07-29T04:32:13;1.77;;;0.90;;
41556;SDS011;27720;51.992;5.890;2023-07-29T04:34:41;1.88;;;1.05;;
41556;SDS011;27720;51.992;5.890;2023-07-29T04:37:07;2.35;;;1.17;;
41556;SDS011;27720;51.992;5.890;2023-07-29T04:39:32;1.88;;;0.60;;
41556;SDS011;27720;51.992;5.890;2023-07-29T04:41:58;1.50;;;0.80;;
41556;SDS011;27720;51.992;5.890;2023-07-29T04:44:26;1.67;;;0.77;;
41556;SDS011;27720;51.992;5.890;2023-07-29T04:46:51;1.63;;;0.77;;
41556;SDS011;27720;51.992;5.890;2023-07-29T04:49:17;2.53;;;1.00;;
41556;SDS011;27720;51.992;5.890;2023-07-29T04:51:45;2.20;;;0.90;;
41556;SDS011;27720;51.992;5.890;2023-07-29T04:54:11;2.47;;;0.88;;
41556;SDS011;27720;51.992;5.890;2023-07-29T04:56:37;2.00;;;1.27;;
41556;SDS011;27720;51.992;5.890;2023-07-29T04:59:03;1.42;;;0.63;;
41556;SDS011;27720;51.992;5.890;2023-07-29T05:01:29;1.38;;;0.88;;
41556;SDS011;27720;51.992;5.890;2023-07-29T05:03:55;1.17;;;0.70;;
41556;SDS011;27720;51.992;5.890;2023-07-29T05:06:21;1.67;;;0.80;;
41556;SDS011;27720;51.992;5.890;2023-07-29T05:08:46;2.47;;;0.90;;
41556;SDS011;27720;51.992;5.890;2023-07-29T05:11:12;1.42;;;1.00;;
41556;SDS011;27720;51.992;5.890;2023-07-29T05:13:41;1.45;;;0.68;;
41556;SDS011;27720;51.992;5.890;2023-07-29T05:16:09;0.90;;;0.50;;
41556;SDS011;27720;51.992;5.890;2023-07-29T05:18:44;1.25;;;0.80;;
41556;SDS011;27720;51.992;5.890;2023-07-29T05:21:10;0.68;;;0.35;;
41556;SDS011;27720;51.992;5.890;2023-07-29T05:23:40;1.03;;;0.70;;
41556;SDS011;27720;51.992;5.890;2023-07-29T05:26:05;1.20;;;0.77;;
41556;SDS011;27720;51.992;5.890;2023-07-29T05:28:34;1.77;;;0.80;;
41556;SDS011;27720;51.992;5.890;2023-07-29T05:31:00;0.60;;;0.40;;
41556;SDS011;27720;51.992;5.890;2023-07-29T05:33:27;2.15;;;0.70;;
41556;SDS011;27720;51.992;5.890;2023-07-29T05:35:53;1.00;;;0.70;;
41556;SDS011;27720;51.992;5.890;2023-07-29T05:38:18;1.73;;;0.70;;
41556;SDS011;27720;51.992;5.890;2023-07-29T05:40:48;3.10;;;0.70;;
41556;SDS011;27720;51.992;5.890;2023-07-29T05:43:14;2.20;;;1.05;;
41556;SDS011;27720;51.992;5.890;2023-07-29T05:45:39;1.55;;;0.65;;
41556;SDS011;27720;51.992;5.890;2023-07-29T05:48:06;1.40;;;0.70;;
41556;SDS011;27720;51.992;5.890;2023-07-29T05:50:31;1.83;;;0.80;;
41556;SDS011;27720;51.992;5.890;2023-07-29T05:52:57;4.43;;;1.23;;
41556;SDS011;27720;51.992;5.890;2023-07-29T05:55:23;1.88;;;0.88;;
41556;SDS011;27720;51.992;5.890;2023-07-29T05:57:49;2.20;;;0.70;;
41556;SDS011;27720;51.992;5.890;2023-07-29T06:00:15;1.63;;;0.88;;
41556;SDS011;27720;51.992;5.890;2023-07-29T06:02:41;1.58;;;0.60;;
41556;SDS011;27720;51.992;5.890;2023-07-29T06:05:09;0.60;;;0.45;;
41556;SDS011;27720;51.992;5.890;2023-07-29T06:07:35;2.30;;;1.00;;
41556;SDS011;27720;51.992;5.890;2023-07-29T14:40:39;2.03;;;0.85;;
41556;SDS011;27720;51.992;5.890;2023-07-29T14:43:04;1.67;;;1.10;;
41556;SDS011;27720;51.992;5.890;2023-07-29T14:45:30;1.70;;;0.90;;
41556;SDS011;27720;51.992;5.890;2023-07-29T14:47:56;1.48;;;0.80;;
41556;SDS011;27720;51.992;5.890;2023-07-29T14:50:22;1.13;;;0.73;;
41556;SDS011;27720;51.992;5.890;2023-07-29T14:52:47;1.17;;;0.77;;
41556;SDS011;27720;51.992;5.890;2023-07-29T14:55:13;1.05;;;0.73;;
41556;SDS011;27720;51.992;5.890;2023-07-29T14:57:39;2.42;;;0.80;;
41556;SDS011;27720;51.992;5.890;2023-07-29T15:00:06;0.80;;;0.60;;
41556;SDS011;27720;51.992;5.890;2023-07-29T15:02:32;1.75;;;0.98;;
41556;SDS011;27720;51.992;5.890;2023-07-29T15:04:58;1.30;;;0.70;;
41556;SDS011;27720;51.992;5.890;2023-07-29T15:07:24;0.85;;;0.65;;
41556;SDS011;27720;51.992;5.890;2023-07-29T15:09:49;1.05;;;0.68;;
41556;SDS011;27720;51.992;5.890;2023-07-29T15:12:15;2.05;;;1.13;;
41556;SDS011;27720;51.992;5.890;2023-07-29T15:14:42;0.93;;;0.63;;
41556;SDS011;27720;51.992;5.890;2023-07-29T15:17:07;1.25;;;0.80;;
41556;SDS011;27720;51.992;5.890;2023-07-29T15:19:33;1.63;;;0.70;;
41556;SDS011;27720;51.992;5.890;2023-07-29T15:21:59;0.90;;;0.70;;
41556;SDS011;27720;51.992;5.890;2023-07-29T15:24:25;1.50;;;0.68;;
41556;SDS011;27720;51.992;5.890;2023-07-29T15:26:51;2.08;;;0.70;;
41556;SDS011;27720;51.992;5.890;2023-07-29T15:29:16;0.95;;;0.60;;
41556;SDS011;27720;51.992;5.890;2023-07-29T15:31:42;1.67;;;0.60;;
41556;SDS011;27720;51.992;5.890;2023-07-29T15:34:08;0.90;;;0.57;;
41556;SDS011;27720;51.992;5.890;2023-07-29T15:36:34;0.80;;;0.57;;
41556;SDS011;27720;51.992;5.890;2023-07-29T15:39:01;1.30;;;0.60;;
41556;SDS011;27720;51.992;5.890;2023-07-29T15:41:31;0.90;;;0.70;;
41556;SDS011;27720;51.992;5.890;2023-07-29T15:43:59;1.05;;;0.45;;
41556;SDS011;27720;51.992;5.890;2023-07-29T15:46:25;0.75;;;0.70;;
41556;SDS011;27720;51.992;5.890;2023-07-29T15:48:51;1.35;;;0.60;;
41556;SDS011;27720;51.992;5.890;2023-07-29T15:51:16;1.10;;;0.60;;
41556;SDS011;27720;51.992;5.890;2023-07-29T15:53:42;0.80;;;0.60;;
41556;SDS011;27720;51.992;5.890;2023-07-29T15:56:08;1.13;;;0.60;;
41556;SDS011;27720;51.992;5.890;2023-07-29T15:58:33;1.15;;;0.55;;
41556;SDS011;27720;51.992;5.890;2023-07-29T16:01:00;1.23;;;0.80;;
41556;SDS011;27720;51.992;5.890;2023-07-29T16:03:26;1.20;;;0.60;;
41556;SDS011;27720;51.992;5.890;2023-07-29T16:05:52;0.75;;;0.50;;
41556;SDS011;27720;51.992;5.890;2023-07-29T16:08:18;0.82;;;0.75;;
41556;SDS011;27720;51.992;5.890;2023-07-29T16:10:44;1.23;;;0.68;;
41556;SDS011;27720;51.992;5.890;2023-07-29T16:13:10;2.67;;;0.70;;
41556;SDS011;27720;51.992;5.890;2023-07-29T16:15:38;1.80;;;0.60;;
41556;SDS011;27720;51.992;5.890;2023-07-29T16:18:04;2.38;;;1.10;;
41556;SDS011;27720;51.992;5.890;2023-07-29T16:20:30;2.30;;;0.93;;
41556;SDS011;27720;51.992;5.890;2023-07-29T16:23:21;1.08;;;0.70;;
41556;SDS011;27720;51.992;5.890;2023-07-29T16:25:46;1.52;;;0.82;;
41556;SDS011;27720;51.992;5.890;2023-07-29T16:28:12;0.82;;;0.68;;
41556;SDS011;27720;51.992;5.890;2023-07-29T16:30:38;1.35;;;0.80;;
41556;SDS011;27720;51.992;5.890;2023-07-29T16:33:05;1.25;;;0.65;;
41556;SDS011;27720;51.992;5.890;2023-07-29T16:40:51;2.13;;;0.80;;
41556;SDS011;27720;51.992;5.890;2023-07-29T16:43:34;1.58;;;1.13;;
41556;SDS011;27720;51.992;5.890;2023-07-29T16:46:06;1.73;;;0.98;;
41556;SDS011;27720;51.992;5.890;2023-07-29T16:48:32;1.67;;;1.00;;
41556;SDS011;27720;51.992;5.890;2023-07-29T16:51:03;2.85;;;1.63;;
41556;SDS011;27720;51.992;5.890;2023-07-29T16:53:30;2.38;;;1.67;;
41556;SDS011;27720;51.992;5.890;2023-07-29T16:55:56;2.35;;;1.45;;
41556;SDS011;27720;51.992;5.890;2023-07-29T16:58:22;3.45;;;1.35;;
41556;SDS011;27720;51.992;5.890;2023-07-29T17:00:48;2.00;;;1.13;;
41556;SDS011;27720;51.992;5.890;2023-07-29T17:03:14;2.53;;;1.10;;
41556;SDS011;27720;51.992;5.890;2023-07-29T17:05:39;2.05;;;1.40;;
41556;SDS011;27720;51.992;5.890;2023-07-29T17:08:05;2.05;;;1.30;;
41556;SDS011;27720;51.992;5.890;2023-07-29T17:10:31;2.78;;;1.05;;
41556;SDS011;27720;51.992;5.890;2023-07-29T17:12:57;1.55;;;1.15;;
41556;SDS011;27720;51.992;5.890;2023-07-29T17:15:22;1.95;;;1.30;;
41556;SDS011;27720;51.992;5.890;2023-07-29T17:17:48;1.70;;;1.27;;
41556;SDS011;27720;51.992;5.890;2023-07-29T17:20:14;2.40;;;1.30;;
41556;SDS011;27720;51.992;5.890;2023-07-29T17:22:43;2.30;;;1.27;;
41556;SDS011;27720;51.992;5.890;2023-07-29T17:25:08;2.05;;;1.33;;
41556;SDS011;27720;51.992;5.890;2023-07-29T17:27:35;2.38;;;1.30;;
41556;SDS011;27720;51.992;5.890;2023-07-29T17:30:01;2.08;;;1.10;;
41556;SDS011;27720;51.992;5.890;2023-07-29T17:32:27;5.03;;;2.25;;
41556;SDS011;27720;51.992;5.890;2023-07-29T17:34:53;4.45;;;2.13;;
41556;SDS011;27720;51.992;5.890;2023-07-29T17:37:19;3.42;;;1.98;;
41556;SDS011;27720;51.992;5.890;2023-07-29T17:39:44;5.15;;;2.05;;
41556;SDS011;27720;51.992;5.890;2023-07-29T17:42:10;2.70;;;1.65;;
41556;SDS011;27720;51.992;5.890;2023-07-29T17:44:36;2.75;;;1.48;;
41556;SDS011;27720;51.992;5.890;2023-07-29T17:47:01;2.58;;;1.20;;
41556;SDS011;27720;51.992;5.890;2023-07-29T17:49:27;2.42;;;1.30;;
41556;SDS011;27720;51.992;5.890;2023-07-29T17:51:53;1.65;;;1.10;;
41556;SDS011;27720;51.992;5.890;2023-07-29T17:54:19;2.33;;;1.42;;
41556;SDS011;27720;51.992;5.890;2023-07-29T17:56:45;2.50;;;1.55;;
41556;SDS011;27720;51.992;5.890;2023-07-29T17:59:11;2.20;;;1.55;;
41556;SDS011;27720;51.992;5.890;2023-07-29T18:01:37;1.42;;;1.20;;
41556;SDS011;27720;51.992;5.890;2023-07-29T18:04:03;2.38;;;1.20;;
41556;SDS011;27720;51.992;5.890;2023-07-29T18:06:28;1.52;;;1.17;;
41556;SDS011;27720;51.992;5.890;2023-07-29T18:08:54;2.35;;;1.20;;
41556;SDS011;27720;51.992;5.890;2023-07-29T18:11:20;2.22;;;1.48;;
41556;SDS011;27720;51.992;5.890;2023-07-29T18:13:46;3.80;;;1.30;;
41556;SDS011;27720;51.992;5.890;2023-07-29T18:16:12;2.53;;;1.42;;
41556;SDS011;27720;51.992;5.890;2023-07-29T18:18:43;1.58;;;1.02;;
41556;SDS011;27720;51.992;5.890;2023-07-29T18:21:09;1.30;;;1.15;;
41556;SDS011;27720;51.992;5.890;2023-07-29T18:23:34;1.40;;;1.00;;
41556;SDS011;27720;51.992;5.890;2023-07-29T18:26:00;1.50;;;1.20;;
41556;SDS011;27720;51.992;5.890;2023-07-29T18:28:26;1.55;;;1.10;;
41556;SDS011;27720;51.992;5.890;2023-07-29T18:30:52;1.98;;;1.25;;
41556;SDS011;27720;51.992;5.890;2023-07-29T18:57:00;1.88;;;1.40;;
41556;SDS011;27720;51.992;5.890;2023-07-29T19:40:42;2.22;;;0.95;;
41556;SDS011;27720;51.992;5.890;2023-07-29T20:24:21;4.22;;;1.40;;
41556;SDS011;27720;51.992;5.890;2023-07-29T20:27:16;2.38;;;0.88;;
41556;SDS011;27720;51.992;5.890;2023-07-29T20:49:24;1.50;;;0.77;;
41556;SDS011;27720;51.992;5.890;2023-07-29T21:27:57;3.15;;;0.73;;
